Time;durP1;ratioP1;P1;durP2;ratioP2;P2;SDS_P1;SDS_P2;PMS_P1;PMS_P2;Temp;Humidity;BMP_temperature;BMP_pressure;BME280_temperature;BME280_humidity;BME280_pressure;Samples;Min_cycle;Max_cycle;Signal;HPM_P1;HPM_P2
2021/12/29 08:46:19;;;;;;;55.65;29.73;;;;;;;;;;5150168;27;20366;-62
2021/12/29 08:48:46;;;;;;;60.78;30.63;;;;;;;;;;5129330;28;20364;-60
2021/12/29 08:51:12;;;;;;;62.38;33.08;;;;;;;;;;5128693;28;20027;-70
2021/12/29 08:53:38;;;;;;;55.85;30.35;;;;;;;;;;5127940;28;20092;-60
2021/12/29 08:56:05;;;;;;;58.03;31.52;;;;;;;;;;5128350;28;20047;-60
2021/12/29 08:58:32;;;;;;;61.63;33.70;;;;;;;;;;5129475;28;20024;-60
2021/12/29 09:00:59;;;;;;;62.88;32.80;;;;;;;;;;5128413;28;20118;-59
2021/12/29 09:03:25;;;;;;;61.85;32.63;;;;;;;;;;5127165;28;20084;-58
2021/12/29 09:05:52;;;;;;;63.55;36.63;;;;;;;;;;5127459;28;20027;-60
2021/12/29 09:08:18;;;;;;;65.90;36.10;;;;;;;;;;5108923;28;20032;-60
2021/12/29 09:10:44;;;;;;;69.40;36.88;;;;;;;;;;5127622;28;20045;-60
2021/12/29 09:13:11;;;;;;;64.72;36.20;;;;;;;;;;5127493;28;20038;-60
2021/12/29 09:15:37;;;;;;;66.50;37.38;;;;;;;;;;5127441;28;20042;-59
2021/12/29 09:18:04;;;;;;;69.40;36.20;;;;;;;;;;5127892;28;20064;-63
2021/12/29 09:20:32;;;;;;;74.65;39.72;;;;;;;;;;5127763;28;20034;-60
2021/12/29 09:23:03;;;;;;;75.65;40.75;;;;;;;;;;5127664;28;20069;-59
2021/12/29 09:25:29;;;;;;;70.93;39.35;;;;;;;;;;5127391;28;20374;-60
2021/12/29 09:27:56;;;;;;;75.65;40.95;;;;;;;;;;5124327;28;20027;-59
2021/12/29 09:30:23;;;;;;;103.75;56.97;;;;;;;;;;5120528;28;20055;-60
2021/12/29 09:32:49;;;;;;;113.35;61.90;;;;;;;;;;5128217;28;20821;-60
2021/12/29 09:35:16;;;;;;;106.47;62.45;;;;;;;;;;5128212;28;20049;-60
2021/12/29 09:37:42;;;;;;;112.85;64.82;;;;;;;;;;5123030;28;20410;-60
2021/12/29 09:40:09;;;;;;;111.38;64.00;;;;;;;;;;5121140;28;20077;-59
2021/12/29 09:42:36;;;;;;;118.32;66.32;;;;;;;;;;5122074;28;20023;-60
2021/12/29 09:45:03;;;;;;;112.32;59.75;;;;;;;;;;5109119;28;20056;-59
2021/12/29 09:47:29;;;;;;;106.38;57.35;;;;;;;;;;5119964;28;20027;-60
2021/12/29 09:49:56;;;;;;;138.95;72.05;;;;;;;;;;5127919;28;20045;-60
2021/12/29 09:52:50;;;;;;;140.07;74.10;;;;;;;;;;5119445;28;20027;-60
2021/12/29 09:55:34;;;;;;;138.02;74.30;;;;;;;;;;5107611;28;20089;-61
2021/12/29 09:58:19;;;;;;;144.40;74.45;;;;;;;;;;5110330;28;20035;-62
2021/12/29 10:00:56;;;;;;;114.18;62.03;;;;;;;;;;5093422;28;20032;-60
2021/12/29 10:03:27;;;;;;;167.38;88.07;;;;;;;;;;5093966;28;20024;-60
2021/12/29 10:05:54;;;;;;;109.22;57.13;;;;;;;;;;5093705;28;20437;-60
2021/12/29 10:08:23;;;;;;;120.80;65.95;;;;;;;;;;5098655;28;20020;-60
2021/12/29 10:10:51;;;;;;;91.78;49.17;;;;;;;;;;5093307;28;20115;-60
2021/12/29 10:13:17;;;;;;;92.88;50.50;;;;;;;;;;5093686;28;20036;-60
2021/12/29 10:15:45;;;;;;;147.40;79.70;;;;;;;;;;5093298;28;20035;-62
2021/12/29 10:18:13;;;;;;;117.82;62.47;;;;;;;;;;5093815;28;20024;-59
2021/12/29 10:20:51;;;;;;;101.05;54.45;;;;;;;;;;5093469;28;20036;-60
2021/12/29 10:23:19;;;;;;;94.68;50.10;;;;;;;;;;5093563;28;20020;-59
2021/12/29 10:25:45;;;;;;;81.85;44.13;;;;;;;;;;5094794;28;20129;-60
2021/12/29 10:28:25;;;;;;;79.10;42.05;;;;;;;;;;5101868;28;20145;-59
2021/12/29 10:31:05;;;;;;;80.03;40.83;;;;;;;;;;5102598;28;20012;-61
2021/12/29 10:33:33;;;;;;;73.90;39.83;;;;;;;;;;5102411;28;20468;-61
2021/12/29 10:36:09;;;;;;;69.80;37.97;;;;;;;;;;5100968;28;20455;-60
2021/12/29 10:38:35;;;;;;;69.80;38.25;;;;;;;;;;5099397;28;20069;-60
2021/12/29 10:41:03;;;;;;;64.82;37.38;;;;;;;;;;5100725;28;20498;-60
2021/12/29 10:43:29;;;;;;;65.32;36.80;;;;;;;;;;5102901;28;20027;-60
2021/12/29 10:45:55;;;;;;;64.32;35.67;;;;;;;;;;5101609;28;20068;-61
2021/12/29 10:48:26;;;;;;;66.35;36.15;;;;;;;;;;5095918;28;20019;-61
2021/12/29 10:50:58;;;;;;;68.35;36.55;;;;;;;;;;5092864;28;20035;-60
2021/12/29 10:53:24;;;;;;;68.32;37.60;;;;;;;;;;5092968;28;20032;-61
2021/12/29 10:55:50;;;;;;;65.90;36.22;;;;;;;;;;5092723;28;20028;-60
2021/12/29 10:58:21;;;;;;;69.88;39.30;;;;;;;;;;5098220;28;20020;-61
2021/12/29 11:00:49;;;;;;;198.77;102.57;;;;;;;;;;5082120;28;20705;-60
2021/12/29 11:03:17;;;;;;;156.88;79.15;;;;;;;;;;5102512;28;20024;-62
2021/12/29 11:05:48;;;;;;;81.25;43.67;;;;;;;;;;5099342;28;20028;-60
2021/12/29 11:08:15;;;;;;;70.10;39.78;;;;;;;;;;5103871;28;20019;-60
2021/12/29 11:10:41;;;;;;;72.93;39.25;;;;;;;;;;5112900;28;20101;-58
2021/12/29 11:13:09;;;;;;;73.03;40.92;;;;;;;;;;5106569;28;20390;-60
2021/12/29 11:15:41;;;;;;;78.78;40.92;;;;;;;;;;5103969;28;20138;-63
2021/12/29 11:18:09;;;;;;;83.90;42.78;;;;;;;;;;5100711;28;20051;-62
2021/12/29 11:20:35;;;;;;;86.70;45.45;;;;;;;;;;5104470;28;20031;-60
2021/12/29 11:23:07;;;;;;;86.85;44.10;;;;;;;;;;5113097;28;20023;-61
2021/12/29 11:25:34;;;;;;;89.00;46.38;;;;;;;;;;5112810;28;20360;-62
2021/12/29 11:28:03;;;;;;;80.78;44.05;;;;;;;;;;5112314;28;20051;-62
2021/12/29 11:30:30;;;;;;;83.30;44.83;;;;;;;;;;5106742;28;20379;-61
2021/12/29 11:33:06;;;;;;;88.60;45.47;;;;;;;;;;5104387;28;20452;-60
2021/12/29 11:35:37;;;;;;;84.75;43.70;;;;;;;;;;5112468;28;20031;-57
2021/12/29 11:38:04;;;;;;;91.18;46.97;;;;;;;;;;5112544;28;20059;-62
2021/12/29 11:40:32;;;;;;;85.03;45.58;;;;;;;;;;5106392;28;20024;-63
2021/12/29 11:42:58;;;;;;;93.30;47.80;;;;;;;;;;5096565;28;20061;-61
2021/12/29 11:45:25;;;;;;;88.35;46.10;;;;;;;;;;5106454;28;20051;-60
2021/12/29 11:47:52;;;;;;;89.28;47.13;;;;;;;;;;5096362;28;20464;-59
2021/12/29 11:50:20;;;;;;;85.40;45.15;;;;;;;;;;5095748;28;20084;-59
2021/12/29 11:52:46;;;;;;;92.00;48.33;;;;;;;;;;5091874;28;20027;-61
2021/12/29 11:55:26;;;;;;;93.90;48.60;;;;;;;;;;5094398;28;20772;-61
2021/12/29 11:57:52;;;;;;;88.18;46.38;;;;;;;;;;5098900;28;20047;-59
2021/12/29 12:00:20;;;;;;;85.93;45.25;;;;;;;;;;5101464;28;20069;-60
2021/12/29 12:02:47;;;;;;;84.85;45.67;;;;;;;;;;5099980;28;20039;-58
2021/12/29 12:05:15;;;;;;;91.13;47.10;;;;;;;;;;5102829;28;20463;-60
2021/12/29 12:07:41;;;;;;;92.57;50.38;;;;;;;;;;5083391;28;20470;-61
2021/12/29 12:10:11;;;;;;;97.50;49.42;;;;;;;;;;5099660;28;20036;-60
2021/12/29 12:12:43;;;;;;;93.13;48.72;;;;;;;;;;5100082;28;20451;-61
2021/12/29 12:15:10;;;;;;;98.53;50.28;;;;;;;;;;5104392;28;20047;-67
2021/12/29 12:17:36;;;;;;;88.82;47.00;;;;;;;;;;5101383;28;20495;-59
2021/12/29 12:20:05;;;;;;;93.70;48.47;;;;;;;;;;5103709;28;20099;-58
2021/12/29 12:22:41;;;;;;;94.85;50.47;;;;;;;;;;5111210;28;20020;-59
2021/12/29 12:25:07;;;;;;;98.72;50.92;;;;;;;;;;5108803;28;20606;-59
2021/12/29 12:27:33;;;;;;;102.55;52.88;;;;;;;;;;5093583;28;20035;-59
2021/12/29 12:30:01;;;;;;;111.30;64.13;;;;;;;;;;5096663;28;20024;-62
2021/12/29 12:32:27;;;;;;;108.55;57.40;;;;;;;;;;5103125;28;20378;-59
2021/12/29 12:34:57;;;;;;;108.05;56.65;;;;;;;;;;5109289;28;20026;-59
2021/12/29 12:37:31;;;;;;;119.63;62.53;;;;;;;;;;5099774;28;20069;-59
2021/12/29 12:40:06;;;;;;;110.32;58.47;;;;;;;;;;5102320;28;20028;-60
2021/12/29 12:42:34;;;;;;;117.93;59.65;;;;;;;;;;5108513;28;20028;-61
2021/12/29 12:45:01;;;;;;;122.10;60.10;;;;;;;;;;5110989;28;20043;-63
2021/12/29 12:47:33;;;;;;;115.50;59.67;;;;;;;;;;5096585;28;20028;-58
2021/12/29 12:50:00;;;;;;;120.45;63.65;;;;;;;;;;5090853;28;20051;-59
2021/12/29 12:52:27;;;;;;;114.93;60.42;;;;;;;;;;5091069;28;20024;-58
2021/12/29 12:54:55;;;;;;;111.60;56.53;;;;;;;;;;5090932;28;20020;-59
2021/12/29 12:57:30;;;;;;;111.22;56.20;;;;;;;;;;5090768;28;20106;-60
2021/12/29 13:00:08;;;;;;;98.05;51.72;;;;;;;;;;5090670;28;20032;-59
2021/12/29 13:02:39;;;;;;;109.38;54.33;;;;;;;;;;5091552;28;20440;-63
2021/12/29 13:05:07;;;;;;;110.30;58.28;;;;;;;;;;5094948;28;20046;-59
2021/12/29 13:07:33;;;;;;;105.80;54.20;;;;;;;;;;5090945;28;20032;-58
2021/12/29 13:09:59;;;;;;;97.32;51.55;;;;;;;;;;5093163;28;20048;-56
2021/12/29 13:12:29;;;;;;;101.45;51.40;;;;;;;;;;5089401;28;20046;-59
2021/12/29 13:15:03;;;;;;;99.15;52.10;;;;;;;;;;5100384;28;20054;-59
2021/12/29 13:17:30;;;;;;;95.40;51.58;;;;;;;;;;5092937;28;20349;-58
2021/12/29 13:19:56;;;;;;;91.90;48.83;;;;;;;;;;5095743;28;20525;-59
2021/12/29 13:22:31;;;;;;;81.95;46.55;;;;;;;;;;5100771;28;20034;-59
2021/12/29 13:25:09;;;;;;;85.07;46.47;;;;;;;;;;5090737;28;20028;-61
2021/12/29 13:27:35;;;;;;;79.80;44.67;;;;;;;;;;5090741;28;20027;-59
2021/12/29 13:30:04;;;;;;;80.25;44.83;;;;;;;;;;5097552;28;20028;-57
2021/12/29 13:32:30;;;;;;;74.05;41.45;;;;;;;;;;5101258;28;20065;-59
2021/12/29 13:35:04;;;;;;;79.22;43.55;;;;;;;;;;5103187;28;20485;-60
2021/12/29 13:37:30;;;;;;;72.07;39.70;;;;;;;;;;5097703;28;20059;-59
2021/12/29 13:39:56;;;;;;;74.05;41.30;;;;;;;;;;5104769;28;20418;-59
2021/12/29 13:42:22;;;;;;;76.75;41.15;;;;;;;;;;5106109;28;20020;-59
2021/12/29 13:44:48;;;;;;;75.38;42.63;;;;;;;;;;5105600;28;20172;-57
2021/12/29 13:47:24;;;;;;;73.85;40.67;;;;;;;;;;5087078;28;20062;-57
2021/12/29 13:49:50;;;;;;;69.90;39.47;;;;;;;;;;5104084;28;20395;-61
2021/12/29 13:52:17;;;;;;;67.63;39.15;;;;;;;;;;5102671;28;20397;-56
2021/12/29 13:54:45;;;;;;;70.10;40.33;;;;;;;;;;5103868;28;20051;-62
2021/12/29 13:57:11;;;;;;;74.60;39.97;;;;;;;;;;5083709;28;20147;-57
2021/12/29 13:59:37;;;;;;;69.53;38.40;;;;;;;;;;5103291;28;20108;-59
2021/12/29 14:02:05;;;;;;;73.50;39.72;;;;;;;;;;5103296;28;20168;-60
2021/12/29 14:04:44;;;;;;;66.90;38.70;;;;;;;;;;5104481;28;20086;-60
2021/12/29 14:07:11;;;;;;;66.05;39.42;;;;;;;;;;5101713;28;20016;-61
2021/12/29 14:09:39;;;;;;;67.30;37.78;;;;;;;;;;5101414;28;20040;-60
2021/12/29 14:12:10;;;;;;;73.32;38.80;;;;;;;;;;5106272;28;20046;-58
2021/12/29 14:14:37;;;;;;;66.55;38.55;;;;;;;;;;5113521;28;20046;-59
2021/12/29 14:17:03;;;;;;;69.90;39.00;;;;;;;;;;5113728;28;20024;-60
2021/12/29 14:19:30;;;;;;;73.82;41.05;;;;;;;;;;5110335;28;20523;-58
2021/12/29 14:21:57;;;;;;;71.82;40.15;;;;;;;;;;5084052;28;20028;-61
2021/12/29 14:24:24;;;;;;;78.18;40.63;;;;;;;;;;5095961;28;20075;-59
2021/12/29 14:27:01;;;;;;;68.45;40.08;;;;;;;;;;5103366;28;20015;-61
2021/12/29 14:29:32;;;;;;;74.35;42.25;;;;;;;;;;5103837;28;20032;-61
2021/12/29 14:32:00;;;;;;;73.95;39.67;;;;;;;;;;5102250;28;20031;-59
2021/12/29 14:34:37;;;;;;;67.60;37.97;;;;;;;;;;5100955;28;20074;-60
2021/12/29 14:37:07;;;;;;;70.50;37.92;;;;;;;;;;5100528;28;20407;-59
2021/12/29 14:39:34;;;;;;;68.05;38.50;;;;;;;;;;5101097;28;20030;-60
2021/12/29 14:42:09;;;;;;;72.13;38.58;;;;;;;;;;5100996;28;20073;-58
2021/12/29 14:44:37;;;;;;;72.25;39.38;;;;;;;;;;5101500;28;20505;-58
2021/12/29 14:47:05;;;;;;;70.80;40.20;;;;;;;;;;5101130;28;20024;-59
2021/12/29 14:49:32;;;;;;;73.35;41.13;;;;;;;;;;5102315;28;20038;-61
2021/12/29 14:51:59;;;;;;;73.22;39.58;;;;;;;;;;5099692;28;20024;-60
2021/12/29 14:54:32;;;;;;;69.88;39.55;;;;;;;;;;5101552;28;20023;-63
2021/12/29 14:56:58;;;;;;;74.82;40.70;;;;;;;;;;5100837;28;20023;-59
2021/12/29 14:59:25;;;;;;;72.50;40.50;;;;;;;;;;5102153;28;20110;-63
2021/12/29 15:01:51;;;;;;;73.97;41.65;;;;;;;;;;5094515;28;20481;-60
2021/12/29 15:04:21;;;;;;;74.63;42.60;;;;;;;;;;5093638;28;20032;-61
2021/12/29 15:06:47;;;;;;;75.20;40.28;;;;;;;;;;5091830;28;20031;-62
2021/12/29 15:09:13;;;;;;;70.03;40.85;;;;;;;;;;5092281;28;20024;-58
2021/12/29 15:11:41;;;;;;;73.90;41.22;;;;;;;;;;5092223;28;20028;-60
2021/12/29 15:14:19;;;;;;;71.03;40.13;;;;;;;;;;5092030;28;20107;-60
2021/12/29 15:17:02;;;;;;;69.10;38.47;;;;;;;;;;5092266;28;20058;-63
2021/12/29 15:19:28;;;;;;;71.07;39.97;;;;;;;;;;5092348;28;20042;-63
2021/12/29 15:21:55;;;;;;;84.65;45.25;;;;;;;;;;5092285;28;20108;-63
2021/12/29 15:24:23;;;;;;;83.63;44.58;;;;;;;;;;5092318;28;20396;-58
2021/12/29 15:26:49;;;;;;;74.03;40.53;;;;;;;;;;5074135;28;20113;-60
2021/12/29 15:29:16;;;;;;;75.10;41.60;;;;;;;;;;5092342;28;20107;-60
2021/12/29 15:31:42;;;;;;;72.47;41.35;;;;;;;;;;5092178;28;20052;-62
2021/12/29 15:34:14;;;;;;;77.57;42.60;;;;;;;;;;5073414;28;20093;-59
2021/12/29 15:36:42;;;;;;;86.07;47.22;;;;;;;;;;5099737;28;20035;-60
2021/12/29 15:39:08;;;;;;;74.70;40.63;;;;;;;;;;5112365;28;20024;-62
2021/12/29 15:41:34;;;;;;;73.25;40.30;;;;;;;;;;5112451;28;20117;-60
2021/12/29 15:44:00;;;;;;;73.72;39.28;;;;;;;;;;5112024;28;20030;-60
2021/12/29 15:46:26;;;;;;;74.78;40.03;;;;;;;;;;5112072;28;20036;-60
2021/12/29 15:48:53;;;;;;;77.03;42.00;;;;;;;;;;5093266;28;20120;-65
2021/12/29 15:51:19;;;;;;;84.28;45.05;;;;;;;;;;5112014;28;20039;-63
2021/12/29 15:53:45;;;;;;;84.60;46.22;;;;;;;;;;5103162;28;20158;-62
2021/12/29 15:56:13;;;;;;;83.68;45.95;;;;;;;;;;5104619;28;20110;-59
2021/12/29 15:58:39;;;;;;;81.07;45.60;;;;;;;;;;5098720;28;20024;-58
2021/12/29 16:01:05;;;;;;;82.78;45.03;;;;;;;;;;5091474;28;20028;-59
2021/12/29 16:03:32;;;;;;;83.22;45.55;;;;;;;;;;5096934;28;20073;-62
2021/12/29 16:05:58;;;;;;;85.50;45.42;;;;;;;;;;5091535;28;20035;-63
2021/12/29 16:08:24;;;;;;;89.43;50.30;;;;;;;;;;5098499;28;20020;-62
2021/12/29 16:10:50;;;;;;;91.05;49.78;;;;;;;;;;5090948;28;20503;-62
2021/12/29 16:13:16;;;;;;;88.38;47.03;;;;;;;;;;5090582;28;20478;-64
2021/12/29 16:15:44;;;;;;;79.45;45.45;;;;;;;;;;5090959;28;20032;-63
2021/12/29 16:18:10;;;;;;;80.18;43.05;;;;;;;;;;5093114;28;20031;-63
2021/12/29 16:20:37;;;;;;;76.57;40.72;;;;;;;;;;5096827;28;20055;-63
2021/12/29 16:23:03;;;;;;;76.75;38.78;;;;;;;;;;5098138;28;20020;-61
2021/12/29 16:25:30;;;;;;;75.72;37.22;;;;;;;;;;5100005;28;20047;-60
2021/12/29 16:27:56;;;;;;;72.25;36.53;;;;;;;;;;5090721;28;20548;-63
2021/12/29 16:30:23;;;;;;;71.53;34.53;;;;;;;;;;5091089;28;20024;-62
2021/12/29 16:32:49;;;;;;;76.57;36.03;;;;;;;;;;5091211;28;20130;-62
2021/12/29 16:35:16;;;;;;;75.03;36.55;;;;;;;;;;5090469;28;20024;-63
2021/12/29 16:37:42;;;;;;;77.28;37.55;;;;;;;;;;5098225;28;20027;-61
2021/12/29 16:40:10;;;;;;;76.82;37.75;;;;;;;;;;5093791;28;20024;-61
2021/12/29 16:42:36;;;;;;;72.20;35.20;;;;;;;;;;5095042;28;20040;-60
2021/12/29 16:45:04;;;;;;;76.18;36.47;;;;;;;;;;5099760;28;20117;-63
2021/12/29 16:47:30;;;;;;;76.55;37.63;;;;;;;;;;5110864;28;20028;-63
2021/12/29 16:49:57;;;;;;;82.88;38.88;;;;;;;;;;5111372;28;20064;-63
2021/12/29 16:52:23;;;;;;;80.97;39.13;;;;;;;;;;5111431;28;20032;-63
2021/12/29 16:54:49;;;;;;;92.05;42.65;;;;;;;;;;5110714;28;20070;-64
2021/12/29 16:57:15;;;;;;;92.95;46.38;;;;;;;;;;5104729;28;20036;-63
2021/12/29 16:59:41;;;;;;;100.07;48.85;;;;;;;;;;5102292;28;20020;-62
2021/12/29 17:02:08;;;;;;;96.68;47.63;;;;;;;;;;5099250;28;20139;-64
2021/12/29 17:04:34;;;;;;;97.90;48.85;;;;;;;;;;5100682;28;20088;-61
2021/12/29 17:07:00;;;;;;;102.57;51.30;;;;;;;;;;5104661;28;20058;-62
2021/12/29 17:09:28;;;;;;;96.63;46.47;;;;;;;;;;5103639;28;20096;-63
2021/12/29 17:11:54;;;;;;;95.13;47.05;;;;;;;;;;5086901;28;20127;-62
2021/12/29 17:14:21;;;;;;;103.65;47.35;;;;;;;;;;5098104;28;20027;-61
2021/12/29 17:16:47;;;;;;;94.85;46.53;;;;;;;;;;5101902;28;20523;-61
2021/12/29 17:19:14;;;;;;;96.10;47.63;;;;;;;;;;5102478;28;20023;-61
2021/12/29 17:21:41;;;;;;;94.72;47.55;;;;;;;;;;5108971;28;20518;-63
2021/12/29 17:24:07;;;;;;;97.03;48.20;;;;;;;;;;5078493;28;20557;-65
2021/12/29 17:26:34;;;;;;;97.50;48.30;;;;;;;;;;5103738;28;20491;-67
2021/12/29 17:29:01;;;;;;;102.18;50.65;;;;;;;;;;5104428;28;20168;-67
2021/12/29 17:31:28;;;;;;;99.07;49.95;;;;;;;;;;5103054;28;20047;-65
2021/12/29 17:33:56;;;;;;;101.93;50.65;;;;;;;;;;5102744;28;20030;-63
2021/12/29 17:36:22;;;;;;;101.65;50.45;;;;;;;;;;5102438;28;20044;-62
2021/12/29 17:38:48;;;;;;;100.38;49.22;;;;;;;;;;5102970;28;20098;-63
2021/12/29 17:41:14;;;;;;;99.68;49.97;;;;;;;;;;5104442;28;20031;-62
2021/12/29 17:43:40;;;;;;;106.55;50.20;;;;;;;;;;5101804;28;20031;-64
2021/12/29 17:46:07;;;;;;;96.30;49.13;;;;;;;;;;5099165;28;20376;-64
2021/12/29 17:48:34;;;;;;;99.60;48.50;;;;;;;;;;5104026;28;20024;-61
2021/12/29 17:51:01;;;;;;;94.25;47.88;;;;;;;;;;5103624;28;20027;-64
2021/12/29 17:53:27;;;;;;;100.85;48.67;;;;;;;;;;5103640;28;20043;-60
2021/12/29 17:55:54;;;;;;;99.28;48.22;;;;;;;;;;5101720;28;20012;-63
2021/12/29 17:58:20;;;;;;;100.88;48.30;;;;;;;;;;5099010;28;20383;-63
2021/12/29 18:00:47;;;;;;;95.40;47.97;;;;;;;;;;5101298;28;20020;-64
2021/12/29 18:03:13;;;;;;;102.85;49.17;;;;;;;;;;5101338;28;20035;-61
2021/12/29 18:05:39;;;;;;;102.60;50.35;;;;;;;;;;5103163;28;20501;-69
2021/12/29 18:08:06;;;;;;;106.28;54.20;;;;;;;;;;5103043;28;20114;-68
2021/12/29 18:10:32;;;;;;;103.15;52.47;;;;;;;;;;5101596;28;20490;-75
2021/12/29 18:12:58;;;;;;;106.20;51.20;;;;;;;;;;5093399;28;20031;-67
2021/12/29 18:15:26;;;;;;;106.32;50.78;;;;;;;;;;5102886;28;20463;-66
2021/12/29 18:17:52;;;;;;;104.45;49.65;;;;;;;;;;5101518;28;20021;-63
2021/12/29 18:20:20;;;;;;;105.50;50.38;;;;;;;;;;5101887;28;20028;-62
2021/12/29 18:22:46;;;;;;;106.95;51.25;;;;;;;;;;5103190;28;20051;-63
2021/12/29 18:25:14;;;;;;;100.07;48.78;;;;;;;;;;5102222;28;20081;-61
2021/12/29 18:27:40;;;;;;;109.95;52.90;;;;;;;;;;5103874;28;20020;-62
2021/12/29 18:30:08;;;;;;;100.38;48.55;;;;;;;;;;5101099;28;20029;-63
2021/12/29 18:32:34;;;;;;;91.57;44.38;;;;;;;;;;5102584;28;20024;-64
2021/12/29 18:35:00;;;;;;;86.32;41.13;;;;;;;;;;5102501;28;20099;-62
2021/12/29 18:37:29;;;;;;;77.80;37.22;;;;;;;;;;5101271;28;20024;-64
2021/12/29 18:39:55;;;;;;;85.05;40.45;;;;;;;;;;5103028;28;20356;-61
2021/12/29 18:42:21;;;;;;;86.93;41.08;;;;;;;;;;5102601;28;20487;-61
2021/12/29 18:44:51;;;;;;;88.47;41.90;;;;;;;;;;5100450;28;20044;-63
2021/12/29 18:47:18;;;;;;;84.35;38.03;;;;;;;;;;5101909;28;20020;-63
2021/12/29 18:49:44;;;;;;;83.72;39.10;;;;;;;;;;5103108;28;20471;-62
2021/12/29 18:52:10;;;;;;;79.47;38.33;;;;;;;;;;5100944;28;20028;-64
2021/12/29 18:54:36;;;;;;;83.63;39.95;;;;;;;;;;5099341;28;20024;-64
2021/12/29 18:57:03;;;;;;;77.55;37.13;;;;;;;;;;5096102;28;20024;-64
2021/12/29 18:59:29;;;;;;;81.68;37.97;;;;;;;;;;5101148;28;20019;-63
2021/12/29 19:01:55;;;;;;;83.03;40.00;;;;;;;;;;5102275;28;20024;-62
2021/12/29 19:04:22;;;;;;;80.78;37.90;;;;;;;;;;5100976;28;20024;-61
2021/12/29 19:06:48;;;;;;;79.53;39.45;;;;;;;;;;5101331;28;20093;-62
2021/12/29 19:09:18;;;;;;;78.30;37.28;;;;;;;;;;5084457;28;20128;-64
2021/12/29 19:11:44;;;;;;;83.45;41.25;;;;;;;;;;5101098;28;20388;-64
2021/12/29 19:14:10;;;;;;;81.30;40.97;;;;;;;;;;5100720;28;20123;-63
2021/12/29 19:16:38;;;;;;;82.07;40.13;;;;;;;;;;5102415;28;20035;-64
2021/12/29 19:19:04;;;;;;;77.88;38.40;;;;;;;;;;5078992;28;20387;-64
2021/12/29 19:21:30;;;;;;;78.25;39.83;;;;;;;;;;5097261;28;20016;-64
2021/12/29 19:23:56;;;;;;;83.20;40.97;;;;;;;;;;5104816;28;20409;-64
2021/12/29 19:26:22;;;;;;;82.28;40.53;;;;;;;;;;5098169;28;20036;-64
2021/12/29 19:28:48;;;;;;;82.53;40.67;;;;;;;;;;5098230;28;20210;-65
2021/12/29 19:31:14;;;;;;;84.72;39.92;;;;;;;;;;5099312;28;20378;-64
2021/12/29 19:33:40;;;;;;;81.75;40.15;;;;;;;;;;5099258;28;20019;-62
2021/12/29 19:36:07;;;;;;;81.57;41.90;;;;;;;;;;5101343;28;20379;-63
2021/12/29 19:38:34;;;;;;;76.90;39.28;;;;;;;;;;5099483;28;20023;-61
2021/12/29 19:41:07;;;;;;;81.07;39.33;;;;;;;;;;5101412;28;20445;-63
2021/12/29 19:43:37;;;;;;;71.57;35.95;;;;;;;;;;5101501;28;20456;-65
2021/12/29 19:46:03;;;;;;;75.30;37.90;;;;;;;;;;5099908;28;20083;-64
2021/12/29 19:48:30;;;;;;;75.10;38.20;;;;;;;;;;5099978;28;20023;-61
2021/12/29 19:50:56;;;;;;;73.57;37.33;;;;;;;;;;5101992;28;20095;-64
2021/12/29 19:53:24;;;;;;;84.15;42.42;;;;;;;;;;5100222;28;20020;-63
2021/12/29 19:55:51;;;;;;;83.80;41.70;;;;;;;;;;5100515;28;20379;-62
2021/12/29 19:58:18;;;;;;;75.05;38.50;;;;;;;;;;5102079;28;20047;-63
2021/12/29 20:00:46;;;;;;;78.10;39.13;;;;;;;;;;5100350;28;20502;-63
2021/12/29 20:03:13;;;;;;;79.90;40.25;;;;;;;;;;5100052;28;20023;-61
2021/12/29 20:05:41;;;;;;;78.25;40.47;;;;;;;;;;5101393;28;20336;-64
2021/12/29 20:08:12;;;;;;;81.93;41.15;;;;;;;;;;5100195;28;20024;-64
2021/12/29 20:10:39;;;;;;;80.97;40.90;;;;;;;;;;5099192;28;20503;-64
2021/12/29 20:13:05;;;;;;;86.47;42.75;;;;;;;;;;5100357;28;20034;-61
2021/12/29 20:15:31;;;;;;;83.35;41.92;;;;;;;;;;5095688;28;20038;-63
2021/12/29 20:17:57;;;;;;;78.10;39.28;;;;;;;;;;5101434;28;20011;-65
2021/12/29 20:20:23;;;;;;;85.80;42.72;;;;;;;;;;5099906;28;20055;-64
2021/12/29 20:22:50;;;;;;;82.72;41.20;;;;;;;;;;5099752;28;20064;-62
2021/12/29 20:25:17;;;;;;;79.22;39.67;;;;;;;;;;5101192;28;20035;-65
2021/12/29 20:27:43;;;;;;;92.00;48.92;;;;;;;;;;5099731;28;20540;-66
2021/12/29 20:30:11;;;;;;;124.78;70.32;;;;;;;;;;5106775;28;20027;-67
2021/12/29 20:32:38;;;;;;;106.70;55.22;;;;;;;;;;5091154;28;20032;-64
2021/12/29 20:35:04;;;;;;;102.70;50.25;;;;;;;;;;5091360;28;20034;-65
2021/12/29 20:37:30;;;;;;;156.98;79.78;;;;;;;;;;5091180;28;20016;-66
2021/12/29 20:39:56;;;;;;;100.70;53.10;;;;;;;;;;5091229;28;20099;-67
2021/12/29 20:42:23;;;;;;;106.85;53.22;;;;;;;;;;5091168;28;20020;-66
2021/12/29 20:44:49;;;;;;;93.55;46.25;;;;;;;;;;5090503;28;20067;-65
2021/12/29 20:47:17;;;;;;;97.93;49.10;;;;;;;;;;5090455;28;20032;-64
2021/12/29 20:49:43;;;;;;;95.53;50.42;;;;;;;;;;5090507;28;20063;-65
2021/12/29 20:52:09;;;;;;;94.63;48.30;;;;;;;;;;5090452;28;20043;-61
2021/12/29 20:54:38;;;;;;;87.75;45.85;;;;;;;;;;5071419;28;20133;-63
2021/12/29 20:57:05;;;;;;;88.00;45.08;;;;;;;;;;5090700;28;20024;-61
2021/12/29 20:59:32;;;;;;;91.85;47.00;;;;;;;;;;5090854;28;20047;-63
2021/12/29 21:01:58;;;;;;;91.10;44.50;;;;;;;;;;5090213;28;20024;-61
2021/12/29 21:04:25;;;;;;;91.22;45.40;;;;;;;;;;5090422;28;20032;-65
2021/12/29 21:06:51;;;;;;;86.95;45.30;;;;;;;;;;5089684;28;20426;-65
2021/12/29 21:09:17;;;;;;;88.95;46.20;;;;;;;;;;5090477;28;20031;-60
2021/12/29 21:11:43;;;;;;;92.25;47.55;;;;;;;;;;5090767;28;20032;-63
2021/12/29 21:14:09;;;;;;;95.93;47.65;;;;;;;;;;5071736;28;20040;-63
2021/12/29 21:16:35;;;;;;;93.32;47.63;;;;;;;;;;5090308;28;20032;-63
2021/12/29 21:19:01;;;;;;;87.88;47.35;;;;;;;;;;5090284;28;20058;-61
2021/12/29 21:21:30;;;;;;;86.75;45.92;;;;;;;;;;5090015;28;20028;-61
2021/12/29 21:23:58;;;;;;;86.07;43.97;;;;;;;;;;5090571;28;20070;-64
2021/12/29 21:26:24;;;;;;;87.40;45.95;;;;;;;;;;5090497;28;20036;-67
2021/12/29 21:28:51;;;;;;;92.28;46.53;;;;;;;;;;5101500;28;20032;-65
2021/12/29 21:31:18;;;;;;;90.90;48.28;;;;;;;;;;5090126;28;20073;-63
2021/12/29 21:33:48;;;;;;;89.68;47.00;;;;;;;;;;5090854;28;20052;-64
2021/12/29 21:36:15;;;;;;;93.95;46.90;;;;;;;;;;5091249;28;20461;-66
2021/12/29 21:38:41;;;;;;;85.15;45.63;;;;;;;;;;5098931;28;20024;-65
2021/12/29 21:41:08;;;;;;;90.35;47.88;;;;;;;;;;5098278;28;20030;-64
2021/12/29 21:43:36;;;;;;;84.93;46.97;;;;;;;;;;5100339;28;20015;-65
2021/12/29 21:46:03;;;;;;;89.28;46.78;;;;;;;;;;5098821;28;20083;-65
2021/12/29 21:48:30;;;;;;;90.88;47.13;;;;;;;;;;5098595;28;20024;-64
2021/12/29 21:50:56;;;;;;;91.97;47.72;;;;;;;;;;5098497;28;20028;-66
2021/12/29 21:53:22;;;;;;;95.20;48.28;;;;;;;;;;5102255;28;20486;-69
2021/12/29 21:55:48;;;;;;;95.40;48.58;;;;;;;;;;5102692;28;20035;-66
2021/12/29 21:58:14;;;;;;;87.63;45.58;;;;;;;;;;5101477;28;20118;-63
2021/12/29 22:00:41;;;;;;;91.65;46.03;;;;;;;;;;5110878;28;20513;-66
2021/12/29 22:03:08;;;;;;;86.63;44.35;;;;;;;;;;5106920;28;20472;-67
2021/12/29 22:05:35;;;;;;;86.88;45.75;;;;;;;;;;5106990;28;20035;-66
2021/12/29 22:08:03;;;;;;;90.20;45.70;;;;;;;;;;5107533;28;20023;-65
2021/12/29 22:10:30;;;;;;;88.20;45.40;;;;;;;;;;5109742;28;20035;-65
2021/12/29 22:12:57;;;;;;;96.82;46.05;;;;;;;;;;5102905;28;20118;-66
2021/12/29 22:15:24;;;;;;;91.88;46.30;;;;;;;;;;5099074;28;20028;-65
2021/12/29 22:17:50;;;;;;;88.30;42.95;;;;;;;;;;5101329;28;20024;-64
2021/12/29 22:20:16;;;;;;;101.20;46.22;;;;;;;;;;5103538;28;20027;-63
2021/12/29 22:22:43;;;;;;;96.13;45.13;;;;;;;;;;5105021;28;20019;-64
2021/12/29 22:25:11;;;;;;;107.38;46.10;;;;;;;;;;5101819;28;20161;-64
2021/12/29 22:27:37;;;;;;;110.38;45.42;;;;;;;;;;5102108;28;20609;-64
2021/12/29 22:30:05;;;;;;;108.03;47.50;;;;;;;;;;5084981;28;20036;-64
2021/12/29 22:32:31;;;;;;;113.50;48.22;;;;;;;;;;5101555;28;20016;-63
2021/12/29 22:34:58;;;;;;;112.30;47.83;;;;;;;;;;5102112;28;20024;-64
2021/12/29 22:37:25;;;;;;;108.63;47.05;;;;;;;;;;5104129;28;20404;-63
2021/12/29 22:39:51;;;;;;;112.75;46.60;;;;;;;;;;5098125;28;20519;-62
2021/12/29 22:42:18;;;;;;;112.28;47.42;;;;;;;;;;5095890;28;20498;-64
2021/12/29 22:44:44;;;;;;;116.32;48.03;;;;;;;;;;5102720;28;20051;-64
2021/12/29 22:47:11;;;;;;;112.40;47.22;;;;;;;;;;5101398;28;20024;-65
2021/12/29 22:49:40;;;;;;;119.45;49.38;;;;;;;;;;5101616;28;20088;-65
2021/12/29 22:52:06;;;;;;;115.13;48.15;;;;;;;;;;5103745;28;20027;-65
2021/12/29 22:54:32;;;;;;;118.28;47.67;;;;;;;;;;5113442;28;20095;-64
2021/12/29 22:56:58;;;;;;;115.35;47.13;;;;;;;;;;5113534;28;20472;-64
2021/12/29 22:59:24;;;;;;;109.13;45.83;;;;;;;;;;5113457;28;20467;-66
2021/12/29 23:01:50;;;;;;;98.28;43.42;;;;;;;;;;5112975;28;20024;-63